sensor_id;sensor_type;location;lat;lon;timestamp;temperature;humidity
20487;DHT22;10402;49.012;8.370;2023-09-19T00:02:02;19.00;93.40
20487;DHT22;10402;49.012;8.370;2023-09-19T00:04:34;19.00;93.40
20487;DHT22;10402;49.012;8.370;2023-09-19T00:07:00;18.90;93.40
20487;DHT22;10402;49.012;8.370;2023-09-19T00:09:27;18.90;93.50
20487;DHT22;10402;49.012;8.370;2023-09-19T00:11:53;18.90;93.40
20487;DHT22;10402;49.012;8.370;2023-09-19T00:14:18;18.90;93.40
20487;DHT22;10402;49.012;8.370;2023-09-19T00:16:44;18.90;93.40
20487;DHT22;10402;49.012;8.370;2023-09-19T00:19:12;18.80;93.40
20487;DHT22;10402;49.012;8.370;2023-09-19T00:21:39;18.80;93.40
20487;DHT22;10402;49.012;8.370;2023-09-19T00:24:06;18.80;93.40
20487;DHT22;10402;49.012;8.370;2023-09-19T00:26:32;18.80;93.70
20487;DHT22;10402;49.012;8.370;2023-09-19T00:28:59;18.80;93.30
20487;DHT22;10402;49.012;8.370;2023-09-19T00:31:30;18.80;93.40
20487;DHT22;10402;49.012;8.370;2023-09-19T00:33:55;18.80;93.30
20487;DHT22;10402;49.012;8.370;2023-09-19T00:36:25;18.80;93.30
20487;DHT22;10402;49.012;8.370;2023-09-19T00:38:51;18.80;93.30
20487;DHT22;10402;49.012;8.370;2023-09-19T00:41:16;18.80;93.30
20487;DHT22;10402;49.012;8.370;2023-09-19T00:43:42;18.80;93.30
20487;DHT22;10402;49.012;8.370;2023-09-19T00:46:08;18.80;93.30
20487;DHT22;10402;49.012;8.370;2023-09-19T00:48:39;18.80;93.30
20487;DHT22;10402;49.012;8.370;2023-09-19T00:51:05;18.80;93.30
20487;DHT22;10402;49.012;8.370;2023-09-19T00:53:31;18.80;93.30
20487;DHT22;10402;49.012;8.370;2023-09-19T00:55:59;18.80;93.30
20487;DHT22;10402;49.012;8.370;2023-09-19T00:58:25;18.80;93.30
20487;DHT22;10402;49.012;8.370;2023-09-19T01:00:50;18.80;93.30
20487;DHT22;10402;49.012;8.370;2023-09-19T01:03:17;18.90;93.30
20487;DHT22;10402;49.012;8.370;2023-09-19T01:05:43;18.90;93.30
20487;DHT22;10402;49.012;8.370;2023-09-19T01:08:09;18.90;93.20
20487;DHT22;10402;49.012;8.370;2023-09-19T01:10:43;18.90;93.20
20487;DHT22;10402;49.012;8.370;2023-09-19T01:13:24;18.90;93.10
20487;DHT22;10402;49.012;8.370;2023-09-19T01:18:48;18.90;93.00
20487;DHT22;10402;49.012;8.370;2023-09-19T01:27:17;18.90;93.00
20487;DHT22;10402;49.012;8.370;2023-09-19T01:29:50;19.00;92.90
20487;DHT22;10402;49.012;8.370;2023-09-19T01:32:18;19.00;92.80
20487;DHT22;10402;49.012;8.370;2023-09-19T01:37:18;19.00;92.80
20487;DHT22;10402;49.012;8.370;2023-09-19T01:40:00;18.90;92.80
20487;DHT22;10402;49.012;8.370;2023-09-19T01:42:42;18.90;92.80
20487;DHT22;10402;49.012;8.370;2023-09-19T01:48:03;18.90;92.80
20487;DHT22;10402;49.012;8.370;2023-09-19T01:50:37;18.90;92.70
20487;DHT22;10402;49.012;8.370;2023-09-19T01:55:47;18.90;92.80
20487;DHT22;10402;49.012;8.370;2023-09-19T01:58:39;18.90;92.90
20487;DHT22;10402;49.012;8.370;2023-09-19T02:01:08;18.90;92.90
20487;DHT22;10402;49.012;8.370;2023-09-19T02:03:38;18.80;92.90
20487;DHT22;10402;49.012;8.370;2023-09-19T02:06:05;18.80;92.90
20487;DHT22;10402;49.012;8.370;2023-09-19T02:08:30;18.80;92.90
20487;DHT22;10402;49.012;8.370;2023-09-19T02:10:58;18.80;92.90
20487;DHT22;10402;49.012;8.370;2023-09-19T02:13:25;18.80;92.90
20487;DHT22;10402;49.012;8.370;2023-09-19T02:15:53;18.80;92.90
20487;DHT22;10402;49.012;8.370;2023-09-19T02:18:18;18.80;92.90
20487;DHT22;10402;49.012;8.370;2023-09-19T02:20:45;18.90;92.90
20487;DHT22;10402;49.012;8.370;2023-09-19T02:23:12;18.90;92.80
20487;DHT22;10402;49.012;8.370;2023-09-19T02:25:38;18.90;92.80
20487;DHT22;10402;49.012;8.370;2023-09-19T02:28:06;18.90;92.80
20487;DHT22;10402;49.012;8.370;2023-09-19T02:30:32;18.90;92.90
20487;DHT22;10402;49.012;8.370;2023-09-19T02:32:58;18.90;92.90
20487;DHT22;10402;49.012;8.370;2023-09-19T02:35:26;18.90;92.90
20487;DHT22;10402;49.012;8.370;2023-09-19T02:37:53;18.80;92.90
20487;DHT22;10402;49.012;8.370;2023-09-19T02:40:19;18.90;93.00
20487;DHT22;10402;49.012;8.370;2023-09-19T02:42:46;18.80;92.90
20487;DHT22;10402;49.012;8.370;2023-09-19T02:45:12;18.80;93.00
20487;DHT22;10402;49.012;8.370;2023-09-19T02:47:40;18.80;93.00
20487;DHT22;10402;49.012;8.370;2023-09-19T02:50:06;18.80;93.00
20487;DHT22;10402;49.012;8.370;2023-09-19T02:52:31;18.80;93.00
20487;DHT22;10402;49.012;8.370;2023-09-19T02:54:57;18.80;93.10
20487;DHT22;10402;49.012;8.370;2023-09-19T02:57:22;18.80;93.10
20487;DHT22;10402;49.012;8.370;2023-09-19T02:59:49;18.70;93.10
20487;DHT22;10402;49.012;8.370;2023-09-19T03:02:15;18.80;93.10
20487;DHT22;10402;49.012;8.370;2023-09-19T03:04:41;18.80;93.10
20487;DHT22;10402;49.012;8.370;2023-09-19T03:07:06;18.70;93.10
20487;DHT22;10402;49.012;8.370;2023-09-19T03:09:32;18.70;93.10
20487;DHT22;10402;49.012;8.370;2023-09-19T03:11:57;18.70;93.10
20487;DHT22;10402;49.012;8.370;2023-09-19T03:14:24;18.70;93.10
20487;DHT22;10402;49.012;8.370;2023-09-19T03:16:50;18.70;93.20
20487;DHT22;10402;49.012;8.370;2023-09-19T03:19:17;18.70;93.20
20487;DHT22;10402;49.012;8.370;2023-09-19T03:21:43;18.70;93.20
20487;DHT22;10402;49.012;8.370;2023-09-19T03:24:08;18.70;93.30
20487;DHT22;10402;49.012;8.370;2023-09-19T03:26:34;18.70;93.30
20487;DHT22;10402;49.012;8.370;2023-09-19T03:28:59;18.70;93.70
20487;DHT22;10402;49.012;8.370;2023-09-19T03:31:31;18.70;93.40
20487;DHT22;10402;49.012;8.370;2023-09-19T03:33:57;18.70;93.40
20487;DHT22;10402;49.012;8.370;2023-09-19T03:36:22;18.70;93.40
20487;DHT22;10402;49.012;8.370;2023-09-19T03:38:48;18.70;93.40
20487;DHT22;10402;49.012;8.370;2023-09-19T03:41:13;18.70;93.40
20487;DHT22;10402;49.012;8.370;2023-09-19T03:43:42;18.70;93.50
20487;DHT22;10402;49.012;8.370;2023-09-19T03:46:08;18.70;93.50
20487;DHT22;10402;49.012;8.370;2023-09-19T03:48:33;18.70;93.50
20487;DHT22;10402;49.012;8.370;2023-09-19T03:50:59;18.70;93.50
20487;DHT22;10402;49.012;8.370;2023-09-19T03:53:24;18.70;93.50
20487;DHT22;10402;49.012;8.370;2023-09-19T03:55:50;18.70;93.50
20487;DHT22;10402;49.012;8.370;2023-09-19T03:58:15;18.70;93.50
20487;DHT22;10402;49.012;8.370;2023-09-19T04:00:41;18.70;93.60
20487;DHT22;10402;49.012;8.370;2023-09-19T04:03:07;18.70;93.50
20487;DHT22;10402;49.012;8.370;2023-09-19T04:05:33;18.60;93.60
20487;DHT22;10402;49.012;8.370;2023-09-19T04:07:59;18.60;93.60
20487;DHT22;10402;49.012;8.370;2023-09-19T04:10:24;18.60;93.60
20487;DHT22;10402;49.012;8.370;2023-09-19T04:12:51;18.60;93.70
20487;DHT22;10402;49.012;8.370;2023-09-19T04:15:18;18.60;93.80
20487;DHT22;10402;49.012;8.370;2023-09-19T04:17:44;18.60;93.80
20487;DHT22;10402;49.012;8.370;2023-09-19T04:20:10;18.60;93.80
20487;DHT22;10402;49.012;8.370;2023-09-19T04:22:37;18.60;93.80
20487;DHT22;10402;49.012;8.370;2023-09-19T04:25:04;18.60;93.90
20487;DHT22;10402;49.012;8.370;2023-09-19T04:27:29;18.60;93.90
20487;DHT22;10402;49.012;8.370;2023-09-19T04:29:55;18.60;93.90
20487;DHT22;10402;49.012;8.370;2023-09-19T04:32:27;18.60;94.00
20487;DHT22;10402;49.012;8.370;2023-09-19T04:34:53;18.60;94.00
20487;DHT22;10402;49.012;8.370;2023-09-19T04:37:19;18.60;94.10
20487;DHT22;10402;49.012;8.370;2023-09-19T04:39:44;18.60;94.20
20487;DHT22;10402;49.012;8.370;2023-09-19T04:42:13;18.60;94.20
20487;DHT22;10402;49.012;8.370;2023-09-19T04:44:40;18.60;94.20
20487;DHT22;10402;49.012;8.370;2023-09-19T04:47:05;18.60;94.30
20487;DHT22;10402;49.012;8.370;2023-09-19T04:49:31;18.70;94.30
20487;DHT22;10402;49.012;8.370;2023-09-19T04:51:57;18.70;94.40
20487;DHT22;10402;49.012;8.370;2023-09-19T04:54:22;18.60;94.30
20487;DHT22;10402;49.012;8.370;2023-09-19T04:56:48;18.60;94.30
20487;DHT22;10402;49.012;8.370;2023-09-19T04:59:14;18.60;94.40
20487;DHT22;10402;49.012;8.370;2023-09-19T05:01:40;18.60;94.50
20487;DHT22;10402;49.012;8.370;2023-09-19T05:04:05;18.50;94.50
20487;DHT22;10402;49.012;8.370;2023-09-19T05:06:31;18.50;94.60
20487;DHT22;10402;49.012;8.370;2023-09-19T05:08:57;18.60;94.60
20487;DHT22;10402;49.012;8.370;2023-09-19T05:11:22;18.60;94.50
20487;DHT22;10402;49.012;8.370;2023-09-19T05:13:49;18.60;94.50
20487;DHT22;10402;49.012;8.370;2023-09-19T05:16:18;18.60;94.50
20487;DHT22;10402;49.012;8.370;2023-09-19T05:18:43;18.60;94.40
20487;DHT22;10402;49.012;8.370;2023-09-19T05:21:09;18.60;94.40
20487;DHT22;10402;49.012;8.370;2023-09-19T05:23:35;18.60;94.40
20487;DHT22;10402;49.012;8.370;2023-09-19T05:26:00;18.50;94.30
20487;DHT22;10402;49.012;8.370;2023-09-19T05:28:27;18.50;94.40
20487;DHT22;10402;49.012;8.370;2023-09-19T05:30:53;18.60;94.40
20487;DHT22;10402;49.012;8.370;2023-09-19T05:33:19;18.50;94.30
20487;DHT22;10402;49.012;8.370;2023-09-19T05:35:45;18.50;94.30
20487;DHT22;10402;49.012;8.370;2023-09-19T05:38:12;18.50;94.40
20487;DHT22;10402;49.012;8.370;2023-09-19T05:40:39;18.50;94.40
20487;DHT22;10402;49.012;8.370;2023-09-19T05:43:08;18.50;94.40
20487;DHT22;10402;49.012;8.370;2023-09-19T05:45:34;18.50;94.20
20487;DHT22;10402;49.012;8.370;2023-09-19T05:48:11;18.50;94.20
20487;DHT22;10402;49.012;8.370;2023-09-19T05:50:38;18.60;94.20
20487;DHT22;10402;49.012;8.370;2023-09-19T05:53:04;18.60;94.20
20487;DHT22;10402;49.012;8.370;2023-09-19T05:55:30;18.50;94.10
20487;DHT22;10402;49.012;8.370;2023-09-19T05:57:56;18.50;94.10
20487;DHT22;10402;49.012;8.370;2023-09-19T06:00:23;18.50;94.00
20487;DHT22;10402;49.012;8.370;2023-09-19T06:02:53;18.60;94.00
20487;DHT22;10402;49.012;8.370;2023-09-19T06:05:19;18.50;93.90
20487;DHT22;10402;49.012;8.370;2023-09-19T06:07:45;18.50;93.90
20487;DHT22;10402;49.012;8.370;2023-09-19T06:10:12;18.50;93.90
20487;DHT22;10402;49.012;8.370;2023-09-19T06:12:47;18.50;93.90
20487;DHT22;10402;49.012;8.370;2023-09-19T06:15:14;18.40;93.80
20487;DHT22;10402;49.012;8.370;2023-09-19T06:17:51;18.40;93.80
20487;DHT22;10402;49.012;8.370;2023-09-19T06:20:17;18.30;93.70
20487;DHT22;10402;49.012;8.370;2023-09-19T06:22:44;18.30;93.70
20487;DHT22;10402;49.012;8.370;2023-09-19T06:25:10;18.30;93.50
20487;DHT22;10402;49.012;8.370;2023-09-19T06:27:46;18.30;93.40
20487;DHT22;10402;49.012;8.370;2023-09-19T06:30:12;18.30;93.40
20487;DHT22;10402;49.012;8.370;2023-09-19T06:32:39;18.30;93.30
20487;DHT22;10402;49.012;8.370;2023-09-19T06:35:05;18.30;93.30
20487;DHT22;10402;49.012;8.370;2023-09-19T06:37:36;18.30;93.60
20487;DHT22;10402;49.012;8.370;2023-09-19T06:40:06;18.40;93.10
20487;DHT22;10402;49.012;8.370;2023-09-19T06:42:32;18.40;92.90
20487;DHT22;10402;49.012;8.370;2023-09-19T06:44:58;18.30;92.80
20487;DHT22;10402;49.012;8.370;2023-09-19T06:47:23;18.30;92.80
20487;DHT22;10402;49.012;8.370;2023-09-19T06:49:51;18.30;92.70
20487;DHT22;10402;49.012;8.370;2023-09-19T06:52:17;18.40;92.60
20487;DHT22;10402;49.012;8.370;2023-09-19T06:54:47;18.30;92.50
20487;DHT22;10402;49.012;8.370;2023-09-19T06:57:16;18.30;92.70
20487;DHT22;10402;49.012;8.370;2023-09-19T06:59:41;18.40;92.40
20487;DHT22;10402;49.012;8.370;2023-09-19T07:02:07;18.40;92.30
20487;DHT22;10402;49.012;8.370;2023-09-19T07:04:33;18.40;92.20
20487;DHT22;10402;49.012;8.370;2023-09-19T07:06:59;18.40;92.10
20487;DHT22;10402;49.012;8.370;2023-09-19T07:09:24;18.40;92.10
20487;DHT22;10402;49.012;8.370;2023-09-19T07:11:52;18.40;92.10
20487;DHT22;10402;49.012;8.370;2023-09-19T07:14:18;18.40;92.00
20487;DHT22;10402;49.012;8.370;2023-09-19T07:16:44;18.50;92.00
20487;DHT22;10402;49.012;8.370;2023-09-19T07:19:10;18.50;91.80
20487;DHT22;10402;49.012;8.370;2023-09-19T07:21:36;18.50;91.80
20487;DHT22;10402;49.012;8.370;2023-09-19T07:24:04;18.50;91.80
20487;DHT22;10402;49.012;8.370;2023-09-19T07:26:30;18.50;91.70
20487;DHT22;10402;49.012;8.370;2023-09-19T07:28:56;18.50;91.70
20487;DHT22;10402;49.012;8.370;2023-09-19T07:31:23;18.60;91.80
20487;DHT22;10402;49.012;8.370;2023-09-19T07:33:48;18.60;91.80
20487;DHT22;10402;49.012;8.370;2023-09-19T07:36:14;18.70;91.80
20487;DHT22;10402;49.012;8.370;2023-09-19T07:38:41;18.70;91.70
20487;DHT22;10402;49.012;8.370;2023-09-19T07:41:07;18.70;91.60
20487;DHT22;10402;49.012;8.370;2023-09-19T07:43:35;18.70;91.50
20487;DHT22;10402;49.012;8.370;2023-09-19T07:46:05;18.80;91.50
20487;DHT22;10402;49.012;8.370;2023-09-19T07:48:33;18.70;91.20
20487;DHT22;10402;49.012;8.370;2023-09-19T07:51:05;18.80;91.20
20487;DHT22;10402;49.012;8.370;2023-09-19T07:53:31;18.80;91.10
20487;DHT22;10402;49.012;8.370;2023-09-19T07:56:06;18.90;90.90
20487;DHT22;10402;49.012;8.370;2023-09-19T07:58:33;18.90;90.70
20487;DHT22;10402;49.012;8.370;2023-09-19T08:01:03;18.90;90.80
20487;DHT22;10402;49.012;8.370;2023-09-19T08:03:29;19.00;90.60
20487;DHT22;10402;49.012;8.370;2023-09-19T08:05:56;19.00;90.40
20487;DHT22;10402;49.012;8.370;2023-09-19T08:08:23;19.00;90.30
20487;DHT22;10402;49.012;8.370;2023-09-19T08:10:53;19.00;90.00
20487;DHT22;10402;49.012;8.370;2023-09-19T08:13:18;19.00;90.10
20487;DHT22;10402;49.012;8.370;2023-09-19T08:15:44;19.10;89.90
20487;DHT22;10402;49.012;8.370;2023-09-19T08:18:10;19.20;89.30
20487;DHT22;10402;49.012;8.370;2023-09-19T08:20:38;19.20;89.00
20487;DHT22;10402;49.012;8.370;2023-09-19T08:23:04;19.20;88.90
20487;DHT22;10402;49.012;8.370;2023-09-19T08:25:31;19.20;88.70
20487;DHT22;10402;49.012;8.370;2023-09-19T08:27:56;19.30;88.60
20487;DHT22;10402;49.012;8.370;2023-09-19T08:30:24;19.30;88.40
20487;DHT22;10402;49.012;8.370;2023-09-19T08:32:50;19.30;88.20
20487;DHT22;10402;49.012;8.370;2023-09-19T08:35:16;19.40;87.90
20487;DHT22;10402;49.012;8.370;2023-09-19T08:37:42;19.40;87.80
20487;DHT22;10402;49.012;8.370;2023-09-19T08:40:10;19.50;87.80
20487;DHT22;10402;49.012;8.370;2023-09-19T08:42:51;19.50;87.50
20487;DHT22;10402;49.012;8.370;2023-09-19T08:45:17;19.60;87.40
20487;DHT22;10402;49.012;8.370;2023-09-19T08:47:50;19.60;87.00
20487;DHT22;10402;49.012;8.370;2023-09-19T08:50:26;19.60;86.10
20487;DHT22;10402;49.012;8.370;2023-09-19T08:52:55;19.60;85.80
20487;DHT22;10402;49.012;8.370;2023-09-19T08:55:28;19.60;84.80
20487;DHT22;10402;49.012;8.370;2023-09-19T08:58:00;19.60;83.20
20487;DHT22;10402;49.012;8.370;2023-09-19T09:00:28;19.60;81.70
20487;DHT22;10402;49.012;8.370;2023-09-19T09:02:55;19.60;80.80
20487;DHT22;10402;49.012;8.370;2023-09-19T09:05:22;19.60;79.40
20487;DHT22;10402;49.012;8.370;2023-09-19T09:07:49;19.70;78.70
20487;DHT22;10402;49.012;8.370;2023-09-19T09:10:21;19.80;77.90
20487;DHT22;10402;49.012;8.370;2023-09-19T09:12:51;19.80;77.50
20487;DHT22;10402;49.012;8.370;2023-09-19T09:15:19;19.90;76.00
20487;DHT22;10402;49.012;8.370;2023-09-19T09:17:47;19.90;76.30
20487;DHT22;10402;49.012;8.370;2023-09-19T09:20:14;20.00;76.50
20487;DHT22;10402;49.012;8.370;2023-09-19T09:22:53;20.00;76.00
20487;DHT22;10402;49.012;8.370;2023-09-19T09:25:19;20.10;75.70
20487;DHT22;10402;49.012;8.370;2023-09-19T09:28:09;20.10;75.20
20487;DHT22;10402;49.012;8.370;2023-09-19T09:30:37;20.20;74.30
20487;DHT22;10402;49.012;8.370;2023-09-19T09:33:13;20.20;73.60
20487;DHT22;10402;49.012;8.370;2023-09-19T09:35:53;20.20;72.80
20487;DHT22;10402;49.012;8.370;2023-09-19T09:38:23;20.20;72.90
20487;DHT22;10402;49.012;8.370;2023-09-19T09:40:56;20.30;72.70
20487;DHT22;10402;49.012;8.370;2023-09-19T09:43:42;20.30;72.20
20487;DHT22;10402;49.012;8.370;2023-09-19T09:46:18;20.40;72.00
20487;DHT22;10402;49.012;8.370;2023-09-19T09:49:07;20.40;71.80
20487;DHT22;10402;49.012;8.370;2023-09-19T09:51:58;20.40;71.80
20487;DHT22;10402;49.012;8.370;2023-09-19T09:54:26;20.50;71.80
20487;DHT22;10402;49.012;8.370;2023-09-19T09:57:10;20.50;71.60
20487;DHT22;10402;49.012;8.370;2023-09-19T09:59:50;20.70;71.50
20487;DHT22;10402;49.012;8.370;2023-09-19T10:02:17;20.70;71.20
20487;DHT22;10402;49.012;8.370;2023-09-19T10:04:59;20.80;71.00
20487;DHT22;10402;49.012;8.370;2023-09-19T10:07:33;20.90;70.90
20487;DHT22;10402;49.012;8.370;2023-09-19T10:10:05;20.80;69.60
20487;DHT22;10402;49.012;8.370;2023-09-19T10:12:55;20.80;68.90
20487;DHT22;10402;49.012;8.370;2023-09-19T10:15:24;20.80;69.20
20487;DHT22;10402;49.012;8.370;2023-09-19T10:17:52;20.80;69.50
20487;DHT22;10402;49.012;8.370;2023-09-19T10:20:24;20.80;69.10
20487;DHT22;10402;49.012;8.370;2023-09-19T10:23:10;20.80;68.60
20487;DHT22;10402;49.012;8.370;2023-09-19T10:25:43;20.80;68.40
20487;DHT22;10402;49.012;8.370;2023-09-19T10:28:13;20.80;67.70
20487;DHT22;10402;49.012;8.370;2023-09-19T10:30:47;20.80;67.60
20487;DHT22;10402;49.012;8.370;2023-09-19T10:33:16;20.80;67.60
20487;DHT22;10402;49.012;8.370;2023-09-19T10:35:44;20.80;67.50
20487;DHT22;10402;49.012;8.370;2023-09-19T10:38:11;20.90;67.50
20487;DHT22;10402;49.012;8.370;2023-09-19T10:40:38;20.90;67.60
20487;DHT22;10402;49.012;8.370;2023-09-19T10:43:20;20.90;67.50
20487;DHT22;10402;49.012;8.370;2023-09-19T10:45:48;20.90;67.30
20487;DHT22;10402;49.012;8.370;2023-09-19T10:48:19;20.80;67.40
20487;DHT22;10402;49.012;8.370;2023-09-19T10:50:53;20.80;67.50
20487;DHT22;10402;49.012;8.370;2023-09-19T10:53:26;20.70;67.40
20487;DHT22;10402;49.012;8.370;2023-09-19T10:55:59;20.70;67.30
20487;DHT22;10402;49.012;8.370;2023-09-19T10:58:30;20.70;67.10
20487;DHT22;10402;49.012;8.370;2023-09-19T11:01:00;20.70;66.80
20487;DHT22;10402;49.012;8.370;2023-09-19T11:03:37;20.70;67.30
20487;DHT22;10402;49.012;8.370;2023-09-19T11:06:18;20.80;67.50
20487;DHT22;10402;49.012;8.370;2023-09-19T11:09:01;20.80;67.40
20487;DHT22;10402;49.012;8.370;2023-09-19T11:20:15;20.90;67.20
20487;DHT22;10402;49.012;8.370;2023-09-19T11:30:45;21.10;66.90
20487;DHT22;10402;49.012;8.370;2023-09-19T11:33:29;21.10;66.50
20487;DHT22;10402;49.012;8.370;2023-09-19T11:35:59;21.20;66.40
20487;DHT22;10402;49.012;8.370;2023-09-19T11:43:47;21.40;65.40
20487;DHT22;10402;49.012;8.370;2023-09-19T11:46:13;21.30;65.00
20487;DHT22;10402;49.012;8.370;2023-09-19T11:48:43;21.30;65.10
20487;DHT22;10402;49.012;8.370;2023-09-19T11:51:11;21.30;65.20
20487;DHT22;10402;49.012;8.370;2023-09-19T11:53:56;21.20;65.60
20487;DHT22;10402;49.012;8.370;2023-09-19T11:56:23;21.10;64.90
20487;DHT22;10402;49.012;8.370;2023-09-19T11:58:52;21.20;64.90
20487;DHT22;10402;49.012;8.370;2023-09-19T12:03:53;21.30;64.50
20487;DHT22;10402;49.012;8.370;2023-09-19T12:06:20;21.40;64.70
20487;DHT22;10402;49.012;8.370;2023-09-19T12:08:47;21.40;64.50
20487;DHT22;10402;49.012;8.370;2023-09-19T12:11:14;21.50;64.30
20487;DHT22;10402;49.012;8.370;2023-09-19T12:13:42;21.60;64.30
20487;DHT22;10402;49.012;8.370;2023-09-19T12:16:16;21.60;64.60
20487;DHT22;10402;49.012;8.370;2023-09-19T12:18:43;21.70;64.10
20487;DHT22;10402;49.012;8.370;2023-09-19T12:26:30;21.80;63.20
20487;DHT22;10402;49.012;8.370;2023-09-19T12:29:02;21.80;62.40
20487;DHT22;10402;49.012;8.370;2023-09-19T12:31:30;21.80;61.80
20487;DHT22;10402;49.012;8.370;2023-09-19T12:34:01;21.80;61.90
20487;DHT22;10402;49.012;8.370;2023-09-19T12:36:27;21.80;62.00
20487;DHT22;10402;49.012;8.370;2023-09-19T12:38:58;21.80;62.10
20487;DHT22;10402;49.012;8.370;2023-09-19T12:41:25;21.80;61.70
20487;DHT22;10402;49.012;8.370;2023-09-19T12:43:52;21.90;61.70
20487;DHT22;10402;49.012;8.370;2023-09-19T12:46:22;21.90;61.40
20487;DHT22;10402;49.012;8.370;2023-09-19T12:49:16;21.90;61.20
20487;DHT22;10402;49.012;8.370;2023-09-19T12:51:48;22.00;61.30
20487;DHT22;10402;49.012;8.370;2023-09-19T12:54:15;22.00;60.50
20487;DHT22;10402;49.012;8.370;2023-09-19T12:56:44;22.00;60.30
20487;DHT22;10402;49.012;8.370;2023-09-19T12:59:12;22.10;60.70
20487;DHT22;10402;49.012;8.370;2023-09-19T13:01:42;22.10;60.00
20487;DHT22;10402;49.012;8.370;2023-09-19T13:04:21;22.10;60.00
20487;DHT22;10402;49.012;8.370;2023-09-19T13:06:53;22.10;60.20
20487;DHT22;10402;49.012;8.370;2023-09-19T13:09:21;22.20;60.00
20487;DHT22;10402;49.012;8.370;2023-09-19T13:11:48;22.20;60.00
20487;DHT22;10402;49.012;8.370;2023-09-19T13:14:26;22.30;59.90
20487;DHT22;10402;49.012;8.370;2023-09-19T13:17:08;22.30;60.20
20487;DHT22;10402;49.012;8.370;2023-09-19T13:19:49;22.30;60.00
20487;DHT22;10402;49.012;8.370;2023-09-19T13:22:40;22.40;59.80
20487;DHT22;10402;49.012;8.370;2023-09-19T13:25:18;22.30;59.60
20487;DHT22;10402;49.012;8.370;2023-09-19T13:27:53;22.30;59.60
20487;DHT22;10402;49.012;8.370;2023-09-19T13:30:21;22.30;59.70
20487;DHT22;10402;49.012;8.370;2023-09-19T13:32:47;22.30;59.60
20487;DHT22;10402;49.012;8.370;2023-09-19T13:35:16;22.30;59.40
20487;DHT22;10402;49.012;8.370;2023-09-19T13:37:43;22.30;59.30
20487;DHT22;10402;49.012;8.370;2023-09-19T13:40:13;22.40;59.40
20487;DHT22;10402;49.012;8.370;2023-09-19T13:42:39;22.40;59.20
20487;DHT22;10402;49.012;8.370;2023-09-19T13:45:05;22.40;59.30
20487;DHT22;10402;49.012;8.370;2023-09-19T13:47:32;22.40;59.40
20487;DHT22;10402;49.012;8.370;2023-09-19T13:49:58;22.50;59.20
20487;DHT22;10402;49.012;8.370;2023-09-19T13:52:24;22.50;59.30
20487;DHT22;10402;49.012;8.370;2023-09-19T13:54:53;22.50;59.00
20487;DHT22;10402;49.012;8.370;2023-09-19T13:57:18;22.60;59.10
20487;DHT22;10402;49.012;8.370;2023-09-19T13:59:44;22.60;59.00
20487;DHT22;10402;49.012;8.370;2023-09-19T14:02:10;22.60;58.80
20487;DHT22;10402;49.012;8.370;2023-09-19T14:04:35;22.70;58.60
20487;DHT22;10402;49.012;8.370;2023-09-19T14:07:02;22.70;58.70
20487;DHT22;10402;49.012;8.370;2023-09-19T14:09:27;22.70;58.60
20487;DHT22;10402;49.012;8.370;2023-09-19T14:11:53;22.80;58.30
20487;DHT22;10402;49.012;8.370;2023-09-19T14:14:19;22.80;58.10
20487;DHT22;10402;49.012;8.370;2023-09-19T14:16:46;22.80;58.20
20487;DHT22;10402;49.012;8.370;2023-09-19T14:19:11;22.90;58.10
20487;DHT22;10402;49.012;8.370;2023-09-19T14:21:37;22.90;58.10
20487;DHT22;10402;49.012;8.370;2023-09-19T14:24:04;22.90;58.00
20487;DHT22;10402;49.012;8.370;2023-09-19T14:26:35;22.90;58.10
20487;DHT22;10402;49.012;8.370;2023-09-19T14:29:00;22.90;58.00
20487;DHT22;10402;49.012;8.370;2023-09-19T14:31:26;22.90;58.10
20487;DHT22;10402;49.012;8.370;2023-09-19T14:33:57;22.90;58.30
20487;DHT22;10402;49.012;8.370;2023-09-19T14:36:23;22.90;58.40
20487;DHT22;10402;49.012;8.370;2023-09-19T14:38:52;22.90;58.40
20487;DHT22;10402;49.012;8.370;2023-09-19T14:41:24;22.90;58.30
20487;DHT22;10402;49.012;8.370;2023-09-19T14:43:54;22.90;58.40
20487;DHT22;10402;49.012;8.370;2023-09-19T14:46:21;22.90;58.40
20487;DHT22;10402;49.012;8.370;2023-09-19T14:48:47;22.90;58.30
20487;DHT22;10402;49.012;8.370;2023-09-19T14:51:12;23.00;58.10
20487;DHT22;10402;49.012;8.370;2023-09-19T14:53:39;22.90;57.80
20487;DHT22;10402;49.012;8.370;2023-09-19T14:56:06;22.90;57.70
20487;DHT22;10402;49.012;8.370;2023-09-19T14:58:33;22.90;58.00
20487;DHT22;10402;49.012;8.370;2023-09-19T15:01:09;22.90;58.00
20487;DHT22;10402;49.012;8.370;2023-09-19T15:03:39;22.90;58.10
20487;DHT22;10402;49.012;8.370;2023-09-19T15:06:12;22.90;58.10
20487;DHT22;10402;49.012;8.370;2023-09-19T15:08:43;22.90;57.90
20487;DHT22;10402;49.012;8.370;2023-09-19T15:11:16;22.90;57.90
20487;DHT22;10402;49.012;8.370;2023-09-19T15:13:43;22.80;57.90
20487;DHT22;10402;49.012;8.370;2023-09-19T15:16:09;22.80;58.10
20487;DHT22;10402;49.012;8.370;2023-09-19T15:18:40;22.80;58.30
20487;DHT22;10402;49.012;8.370;2023-09-19T15:21:08;22.80;58.40
20487;DHT22;10402;49.012;8.370;2023-09-19T15:23:36;22.70;58.40
20487;DHT22;10402;49.012;8.370;2023-09-19T15:26:03;22.70;58.60
20487;DHT22;10402;49.012;8.370;2023-09-19T15:28:29;22.70;58.80
20487;DHT22;10402;49.012;8.370;2023-09-19T15:31:09;22.80;58.90
20487;DHT22;10402;49.012;8.370;2023-09-19T15:33:35;22.70;59.00
20487;DHT22;10402;49.012;8.370;2023-09-19T15:36:05;22.70;59.10
20487;DHT22;10402;49.012;8.370;2023-09-19T15:38:32;22.80;59.20
20487;DHT22;10402;49.012;8.370;2023-09-19T15:41:00;22.80;59.30
20487;DHT22;10402;49.012;8.370;2023-09-19T15:43:26;22.70;59.20
20487;DHT22;10402;49.012;8.370;2023-09-19T15:45:51;22.70;59.20
20487;DHT22;10402;49.012;8.370;2023-09-19T15:48:17;22.70;59.40
20487;DHT22;10402;49.012;8.370;2023-09-19T15:50:44;22.70;59.50
20487;DHT22;10402;49.012;8.370;2023-09-19T15:53:10;22.70;59.50
20487;DHT22;10402;49.012;8.370;2023-09-19T15:55:41;22.70;59.70
20487;DHT22;10402;49.012;8.370;2023-09-19T15:58:07;22.70;59.50
20487;DHT22;10402;49.012;8.370;2023-09-19T16:00:33;22.70;59.60
20487;DHT22;10402;49.012;8.370;2023-09-19T16:03:02;22.70;59.70
20487;DHT22;10402;49.012;8.370;2023-09-19T16:05:34;22.70;59.80
20487;DHT22;10402;49.012;8.370;2023-09-19T16:08:03;22.70;59.80
20487;DHT22;10402;49.012;8.370;2023-09-19T16:10:29;22.70;59.80
20487;DHT22;10402;49.012;8.370;2023-09-19T16:12:55;22.70;60.00
20487;DHT22;10402;49.012;8.370;2023-09-19T16:15:20;22.70;60.20
20487;DHT22;10402;49.012;8.370;2023-09-19T16:17:46;22.70;60.20
20487;DHT22;10402;49.012;8.370;2023-09-19T16:20:12;22.60;60.20
20487;DHT22;10402;49.012;8.370;2023-09-19T16:22:39;22.60;60.20
20487;DHT22;10402;49.012;8.370;2023-09-19T16:25:05;22.60;60.20
20487;DHT22;10402;49.012;8.370;2023-09-19T16:27:31;22.60;60.20